Terminal Aerodrome Forecast
Issued by NWS

Home | Current Version | Previous Version | Text Only | Print | Product List | Glossary On
Versions: 1 2 3 4 5 6 7 8 9 10 11 12 13 14 15 16
000
FTUS43 KGRR 291740
TAFMKG
TAF
KMKG 291740Z 2918/3018 06015G24KT P6SM VCSH BKN070 OVC090
     FM292000 05016G26KT P6SM -RA OVC025
     FM300300 05012G22KT P6SM OVC015
     FM300800 05012G19KT P6SM OVC007=

USA.gov is the U.S. government's official web portal to all federal, state and local government web resources and services.